createdAt,value
2022-12-19T00:01:39.726Z,15.70
2022-12-19T00:04:09.173Z,16.30
2022-12-19T00:06:43.646Z,16.63
2022-12-19T00:09:11.972Z,16.57
2022-12-19T00:11:40.405Z,16.10
2022-12-19T00:14:10.050Z,16.10
2022-12-19T00:16:38.145Z,15.97
2022-12-19T00:19:06.248Z,14.83
2022-12-19T00:21:35.472Z,16.63
2022-12-19T00:24:16.282Z,14.93
2022-12-19T00:26:49.481Z,15.27
2022-12-19T00:29:17.042Z,15.97
2022-12-19T00:31:45.398Z,17.13
2022-12-19T00:34:15.209Z,13.93
2022-12-19T00:36:42.806Z,16.33
2022-12-19T00:39:12.027Z,15.17
2022-12-19T00:41:42.159Z,15.93
2022-12-19T00:44:16.850Z,16.63
2022-12-19T00:46:51.838Z,16.97
2022-12-19T00:49:20.295Z,16.43
2022-12-19T00:51:47.712Z,17.37
2022-12-19T00:54:16.547Z,16.13
2022-12-19T00:56:44.408Z,15.50
2022-12-19T00:59:11.858Z,13.93
2022-12-19T01:01:41.687Z,15.33
2022-12-19T01:04:29.727Z,12.40
2022-12-19T01:07:01.786Z,14.77
2022-12-19T01:09:34.805Z,14.50
2022-12-19T01:12:21.019Z,15.83
2022-12-19T01:14:54.491Z,14.60
2022-12-19T01:17:34.565Z,15.03
2022-12-19T01:20:07.312Z,12.77
2022-12-19T01:22:36.071Z,14.93
2022-12-19T01:25:05.525Z,13.83
2022-12-19T01:27:32.956Z,13.33
2022-12-19T01:30:00.366Z,12.97
2022-12-19T01:32:27.799Z,15.17
2022-12-19T01:34:55.224Z,11.93
2022-12-19T01:37:22.665Z,12.90
2022-12-19T01:39:50.100Z,13.33
2022-12-19T01:42:23.536Z,15.03
2022-12-19T01:45:31.850Z,14.67
2022-12-19T01:48:08.815Z,11.90
2022-12-19T01:50:40.780Z,15.13
2022-12-19T01:53:14.620Z,14.70
2022-12-19T01:55:44.220Z,14.10
2022-12-19T01:58:13.914Z,14.57
2022-12-19T02:00:43.201Z,13.70
2022-12-19T02:03:15.849Z,13.57
2022-12-19T02:05:44.768Z,11.80
2022-12-19T02:08:14.125Z,14.00
2022-12-19T02:10:41.607Z,14.17
2022-12-19T02:13:09.518Z,15.03
2022-12-19T02:15:47.238Z,13.17
2022-12-19T02:18:26.146Z,14.13
2022-12-19T02:21:23.014Z,15.87
2022-12-19T02:24:15.178Z,15.20
2022-12-19T02:26:52.800Z,12.63
2022-12-19T02:29:28.297Z,14.90
2022-12-19T02:31:59.367Z,11.07
2022-12-19T02:34:32.764Z,14.73
2022-12-19T02:37:07.667Z,13.87
2022-12-19T02:39:42.685Z,13.93
2022-12-19T02:42:12.289Z,15.47
2022-12-19T02:44:42.618Z,14.13
2022-12-19T02:47:12.258Z,13.77
2022-12-19T02:49:40.213Z,12.63
2022-12-19T02:52:12.355Z,11.73
2022-12-19T02:54:42.288Z,12.47
2022-12-19T02:57:17.511Z,11.93
2022-12-19T02:59:55.950Z,12.73
2022-12-19T03:02:32.425Z,11.70
2022-12-19T03:05:07.435Z,14.70
2022-12-19T03:07:38.124Z,12.37
2022-12-19T03:10:12.345Z,13.77
2022-12-19T03:12:45.072Z,14.57
2022-12-19T03:15:13.071Z,10.03
2022-12-19T03:17:41.878Z,13.40
2022-12-19T03:20:11.988Z,13.40
2022-12-19T03:22:39.412Z,13.30
2022-12-19T03:25:08.249Z,13.80
2022-12-19T03:27:36.707Z,12.03
2022-12-19T03:30:06.496Z,13.97
2022-12-19T03:32:36.001Z,14.53
2022-12-19T03:35:06.762Z,12.77
2022-12-19T03:37:38.173Z,15.13
2022-12-19T03:40:09.620Z,10.70
2022-12-19T03:42:56.325Z,12.30
2022-12-19T03:45:27.583Z,13.73
2022-12-19T03:47:58.264Z,13.77
2022-12-19T03:50:31.531Z,13.80
2022-12-19T03:53:04.531Z,14.50
2022-12-19T03:55:37.206Z,15.03
2022-12-19T03:58:07.437Z,13.10
2022-12-19T04:00:35.826Z,14.90
2022-12-19T04:03:03.929Z,13.20
2022-12-19T04:05:33.805Z,13.80
2022-12-19T04:08:03.901Z,13.70
2022-12-19T04:10:33.470Z,13.67
2022-12-19T04:13:04.148Z,15.00
2022-12-19T04:15:39.044Z,16.03
2022-12-19T04:18:08.119Z,13.77
2022-12-19T04:20:38.097Z,12.83
2022-12-19T04:23:08.584Z,13.60
2022-12-19T04:25:38.918Z,14.33
2022-12-19T04:28:10.231Z,15.00
2022-12-19T04:30:39.381Z,12.90
2022-12-19T04:33:08.018Z,14.23
2022-12-19T04:35:37.253Z,14.57
2022-12-19T04:38:04.765Z,14.17
2022-12-19T04:40:40.657Z,14.33
2022-12-19T04:43:09.243Z,12.07
2022-12-19T04:45:36.776Z,14.43
2022-12-19T04:48:05.151Z,11.30
2022-12-19T04:50:37.050Z,11.83
2022-12-19T04:53:05.177Z,14.00
2022-12-19T04:55:32.640Z,14.47
2022-12-19T04:58:00.150Z,16.23
2022-12-19T05:00:27.585Z,16.90
2022-12-19T05:02:55.213Z,15.63
2022-12-19T05:05:22.834Z,14.97
2022-12-19T05:07:52.174Z,12.80
2022-12-19T05:10:19.759Z,13.00
2022-12-19T05:12:47.394Z,15.47
2022-12-19T05:15:14.988Z,15.03
2022-12-19T05:17:43.922Z,15.90
2022-12-19T05:20:12.425Z,16.20
2022-12-19T05:22:39.887Z,12.53
2022-12-19T05:25:10.079Z,14.10
2022-12-19T05:27:37.537Z,11.77
2022-12-19T05:30:05.952Z,14.40
2022-12-19T05:32:34.725Z,14.80
2022-12-19T05:35:02.206Z,13.17
2022-12-19T05:37:29.729Z,15.90
2022-12-19T05:39:57.214Z,15.77
2022-12-19T05:42:27.270Z,14.17
2022-12-19T05:44:54.768Z,9.70
2022-12-19T05:47:22.297Z,13.03
2022-12-19T05:49:49.780Z,14.60
2022-12-19T05:52:17.259Z,14.13
2022-12-19T05:54:44.866Z,13.90
2022-12-19T05:57:12.549Z,12.80
2022-12-19T05:59:41.431Z,15.50
2022-12-19T06:02:09.313Z,16.07
2022-12-19T06:04:36.849Z,15.27
2022-12-19T06:07:04.470Z,12.23
2022-12-19T06:09:32.076Z,14.13
2022-12-19T06:11:59.532Z,14.83
2022-12-19T06:14:27.066Z,15.73
2022-12-19T06:16:55.916Z,15.47
2022-12-19T06:19:23.663Z,12.40
2022-12-19T06:21:51.319Z,13.80
2022-12-19T06:24:18.844Z,16.37
2022-12-19T06:26:46.378Z,13.33
2022-12-19T06:29:13.860Z,13.87
2022-12-19T06:31:41.357Z,16.53
2022-12-19T06:34:13.368Z,14.57
2022-12-19T06:36:46.028Z,16.63
2022-12-19T06:39:14.247Z,13.57
2022-12-19T06:41:59.844Z,16.33
2022-12-19T06:44:27.478Z,13.77
2022-12-19T06:46:54.968Z,13.73
2022-12-19T06:49:23.840Z,15.87
2022-12-19T06:51:51.380Z,14.37
2022-12-19T06:54:18.969Z,13.90
2022-12-19T06:56:46.496Z,12.23
2022-12-19T06:59:15.259Z,15.33
2022-12-19T07:01:55.388Z,13.93
2022-12-19T07:04:28.167Z,10.93
2022-12-19T07:06:55.765Z,18.50
2022-12-19T07:09:23.350Z,18.00
2022-12-19T07:11:50.831Z,15.97
2022-12-19T07:14:19.121Z,16.07
2022-12-19T07:16:47.436Z,17.20
2022-12-19T07:19:15.468Z,16.87
2022-12-19T07:21:44.732Z,14.73
2022-12-19T07:24:13.142Z,10.33
2022-12-19T07:26:40.959Z,14.93
2022-12-19T07:29:09.249Z,12.70
2022-12-19T07:31:37.240Z,12.23
2022-12-19T07:34:05.185Z,13.63
2022-12-19T07:36:32.718Z,11.30
2022-12-19T07:39:01.671Z,13.90
2022-12-19T07:41:29.151Z,11.10
2022-12-19T07:43:56.646Z,13.70
2022-12-19T07:46:24.237Z,13.07
2022-12-19T07:48:51.734Z,13.13
2022-12-19T07:51:21.053Z,11.13
2022-12-19T07:53:48.666Z,10.17
2022-12-19T07:56:17.791Z,8.97
2022-12-19T07:58:45.566Z,10.47
2022-12-19T08:01:13.172Z,11.03
2022-12-19T08:03:40.790Z,10.07
2022-12-19T08:06:08.868Z,8.83
2022-12-19T08:08:38.881Z,9.90
2022-12-19T08:11:10.273Z,10.07
2022-12-19T08:13:44.809Z,9.60
2022-12-19T08:16:14.267Z,8.77
2022-12-19T08:18:42.137Z,10.57
2022-12-19T08:21:09.898Z,8.93
2022-12-19T08:23:38.557Z,9.57
2022-12-19T08:26:07.535Z,8.93
2022-12-19T08:28:37.107Z,7.77
2022-12-19T08:31:09.463Z,7.47
2022-12-19T08:33:37.378Z,9.53
2022-12-19T08:36:05.966Z,10.10
2022-12-19T08:38:33.687Z,9.90
2022-12-19T08:41:01.229Z,9.07
2022-12-19T08:43:30.369Z,9.73
2022-12-19T08:45:58.447Z,9.10
2022-12-19T08:48:27.588Z,10.17
2022-12-19T08:50:57.258Z,7.80
2022-12-19T08:53:26.675Z,8.90
2022-12-19T08:55:56.127Z,9.93
2022-12-19T08:58:23.822Z,9.17
2022-12-19T09:00:57.535Z,9.80
2022-12-19T09:03:26.865Z,9.37
2022-12-19T09:06:08.255Z,8.53
2022-12-19T09:08:38.639Z,7.97
2022-12-19T09:11:09.140Z,10.27
2022-12-19T09:13:37.630Z,8.93
2022-12-19T09:16:15.131Z,7.87
2022-12-19T09:18:48.609Z,8.10
2022-12-19T09:21:16.849Z,8.10
2022-12-19T09:23:48.132Z,8.43
2022-12-19T09:26:18.053Z,8.47
2022-12-19T09:28:46.773Z,7.70
2022-12-19T09:31:16.191Z,7.37
2022-12-19T09:33:45.447Z,8.33
2022-12-19T09:36:13.942Z,8.40
2022-12-19T09:38:41.585Z,8.43
2022-12-19T09:41:22.774Z,8.03
2022-12-19T09:43:56.547Z,7.83
2022-12-19T09:46:32.702Z,7.03
2022-12-19T09:49:03.088Z,6.87
2022-12-19T09:51:34.127Z,8.03
2022-12-19T09:54:06.211Z,6.07
2022-12-19T09:56:46.360Z,7.87
2022-12-19T09:59:28.079Z,7.77
2022-12-19T10:02:21.822Z,8.63
2022-12-19T10:05:11.439Z,7.27
2022-12-19T10:08:07.160Z,6.87
2022-12-19T10:12:41.395Z,8.20
2022-12-19T10:13:40.630Z,7.47
2022-12-19T10:16:16.156Z,7.87
2022-12-19T10:18:56.038Z,8.30
2022-12-19T10:22:07.432Z,8.03
2022-12-19T10:24:35.393Z,7.00
2022-12-19T10:27:10.124Z,6.93
2022-12-19T10:29:55.677Z,7.23
2022-12-19T10:32:27.622Z,7.70
2022-12-19T10:34:55.276Z,8.03
2022-12-19T10:37:37.725Z,6.90
2022-12-19T10:40:20.063Z,7.30
2022-12-19T10:42:58.943Z,8.30
2022-12-19T10:45:38.700Z,7.57
2022-12-19T10:48:10.857Z,7.50
2022-12-19T10:50:38.424Z,6.57
2022-12-19T10:53:11.627Z,7.80
2022-12-19T10:55:43.915Z,7.70
2022-12-19T10:58:21.121Z,7.63
2022-12-19T11:01:00.806Z,7.53
2022-12-19T11:03:28.715Z,7.20
2022-12-19T11:05:58.037Z,7.03
2022-12-19T11:08:29.535Z,7.70
2022-12-19T11:11:46.018Z,7.80
2022-12-19T11:18:08.686Z,7.07
2022-12-19T11:22:16.065Z,7.47
2022-12-19T11:29:43.816Z,7.70
2022-12-19T11:30:08.450Z,7.83
2022-12-19T11:30:37.868Z,7.70
2022-12-19T11:30:46.427Z,8.43
2022-12-19T11:33:55.655Z,9.07
2022-12-19T11:36:31.123Z,9.27
2022-12-19T11:38:58.660Z,8.47
2022-12-19T11:41:31.361Z,8.90
2022-12-19T11:44:03.228Z,9.27
2022-12-19T11:46:37.992Z,9.20
2022-12-19T11:49:12.143Z,9.40
2022-12-19T11:51:44.787Z,8.03
2022-12-19T11:54:17.350Z,8.37
2022-12-19T11:56:46.371Z,8.37
2022-12-19T11:59:20.953Z,9.53
2022-12-19T12:02:15.772Z,9.30
2022-12-19T12:05:10.021Z,8.40
2022-12-19T12:08:25.506Z,7.93
2022-12-19T12:13:29.472Z,7.97
2022-12-19T12:21:17.762Z,8.13
2022-12-19T12:30:38.794Z,9.53
2022-12-19T12:31:07.207Z,8.80
2022-12-19T12:31:26.818Z,8.73
2022-12-19T12:31:39.616Z,9.23
2022-12-19T12:32:04.538Z,9.07
2022-12-19T12:32:06.319Z,9.00
2022-12-19T12:35:15.448Z,9.73
2022-12-19T12:39:33.825Z,10.13
2022-12-19T12:42:10.519Z,10.30
2022-12-19T12:44:45.210Z,10.23
2022-12-19T12:47:18.952Z,9.47
2022-12-19T12:49:48.399Z,10.27
2022-12-19T12:52:17.872Z,9.03
2022-12-19T12:54:48.783Z,10.27
2022-12-19T12:57:19.571Z,10.37
2022-12-19T12:59:48.646Z,9.47
2022-12-19T13:02:22.223Z,10.37
2022-12-19T13:04:58.118Z,10.40
2022-12-19T13:07:30.459Z,9.47
2022-12-19T13:10:23.673Z,9.73
2022-12-19T13:13:00.672Z,10.30
2022-12-19T13:15:49.924Z,9.80
2022-12-19T13:18:38.481Z,10.07
2022-12-19T13:21:09.779Z,9.63
2022-12-19T13:23:46.928Z,8.97
2022-12-19T13:26:39.096Z,10.20
2022-12-19T13:29:32.267Z,9.53
2022-12-19T13:32:13.648Z,9.97
2022-12-19T13:34:54.904Z,9.93
2022-12-19T13:40:02.197Z,10.47
2022-12-19T13:40:33.346Z,10.17
2022-12-19T13:43:23.745Z,10.67
2022-12-19T13:45:53.564Z,9.87
2022-12-19T13:48:28.577Z,11.10
2022-12-19T13:50:58.159Z,10.30
2022-12-19T13:53:27.220Z,9.60
2022-12-19T13:55:55.428Z,10.03
2022-12-19T13:58:29.396Z,11.23
2022-12-19T14:00:59.681Z,10.63
2022-12-19T14:03:35.443Z,9.47
2022-12-19T14:06:17.453Z,9.80
2022-12-19T14:08:47.334Z,9.97
2022-12-19T14:11:41.519Z,9.73
2022-12-19T14:14:27.968Z,8.93
2022-12-19T14:16:56.826Z,9.30
2022-12-19T14:19:27.605Z,9.03
2022-12-19T14:22:15.893Z,8.40
2022-12-19T14:24:54.732Z,9.80
2022-12-19T14:28:26.980Z,10.40
2022-12-19T14:30:30.029Z,9.23
2022-12-19T14:33:47.101Z,8.10
2022-12-19T14:36:07.131Z,8.47
2022-12-19T14:39:23.794Z,7.60
2022-12-19T14:42:01.737Z,8.27
2022-12-19T14:52:51.555Z,8.17
2022-12-19T14:54:06.400Z,7.43
2022-12-19T14:54:22.392Z,8.37
2022-12-19T14:54:23.527Z,8.17
2022-12-19T14:56:29.070Z,7.73
2022-12-19T14:58:58.829Z,8.50
2022-12-19T15:01:28.489Z,8.80
2022-12-19T15:04:48.922Z,7.73
2022-12-19T15:07:07.334Z,8.43
2022-12-19T15:10:58.913Z,8.77
2022-12-19T15:14:46.967Z,8.50
2022-12-19T15:15:41.136Z,9.40
2022-12-19T15:18:21.066Z,9.43
2022-12-19T15:20:48.840Z,8.87
2022-12-19T15:23:21.692Z,8.80
2022-12-19T15:26:07.702Z,8.47
2022-12-19T15:28:40.431Z,8.70
2022-12-19T15:31:15.054Z,8.53
2022-12-19T15:34:06.658Z,7.63
2022-12-19T15:36:30.435Z,7.90
2022-12-19T15:38:57.969Z,8.37
2022-12-19T15:41:25.600Z,9.10
2022-12-19T15:44:04.073Z,8.43
2022-12-19T15:46:32.675Z,8.37
2022-12-19T15:49:00.958Z,8.60
2022-12-19T15:51:28.624Z,8.13
2022-12-19T15:54:04.107Z,8.80
2022-12-19T15:56:46.722Z,7.47
2022-12-19T15:59:24.065Z,8.97
2022-12-19T16:01:52.310Z,8.17
2022-12-19T16:04:20.518Z,8.50
2022-12-19T16:06:48.096Z,8.33
2022-12-19T16:09:21.113Z,8.77
2022-12-19T16:11:49.082Z,8.90
2022-12-19T16:14:20.113Z,9.60
2022-12-19T16:16:51.821Z,9.20
2022-12-19T16:19:25.541Z,9.30
2022-12-19T16:21:54.077Z,9.73
2022-12-19T16:24:21.950Z,9.60
2022-12-19T16:26:52.824Z,8.57
2022-12-19T16:29:24.123Z,9.03
2022-12-19T16:31:52.500Z,8.80
2022-12-19T16:34:22.311Z,8.50
2022-12-19T16:36:50.117Z,8.83
2022-12-19T16:39:18.140Z,8.87
2022-12-19T16:41:46.964Z,8.97
2022-12-19T16:44:19.421Z,9.17
2022-12-19T16:46:51.332Z,8.70
2022-12-19T16:49:22.719Z,8.17
2022-12-19T16:51:50.645Z,9.03
2022-12-19T16:54:19.894Z,7.93
2022-12-19T16:56:49.186Z,8.27
2022-12-19T16:59:20.753Z,7.90
2022-12-19T17:01:50.833Z,8.40
2022-12-19T17:04:21.503Z,6.77
2022-12-19T17:06:49.924Z,7.80
2022-12-19T17:09:19.246Z,8.40
2022-12-19T17:11:48.692Z,8.07
2022-12-19T17:14:20.069Z,7.53
2022-12-19T17:16:49.093Z,8.80
2022-12-19T17:19:21.099Z,8.57
2022-12-19T17:21:49.159Z,8.77
2022-12-19T17:24:17.285Z,8.33
2022-12-19T17:26:45.729Z,8.03
2022-12-19T17:29:13.595Z,8.47
2022-12-19T17:31:42.258Z,8.63
2022-12-19T17:34:19.078Z,9.00
2022-12-19T17:36:46.680Z,9.83
2022-12-19T17:39:22.041Z,9.00
2022-12-19T17:41:49.897Z,9.20
2022-12-19T17:44:17.733Z,9.10
2022-12-19T17:46:45.978Z,9.93
2022-12-19T17:49:17.733Z,9.33
2022-12-19T17:51:47.993Z,9.47
2022-12-19T17:54:15.513Z,8.97
2022-12-19T17:56:43.018Z,9.40
2022-12-19T17:59:10.509Z,9.20
2022-12-19T18:01:41.513Z,9.00
2022-12-19T18:04:13.252Z,9.30
2022-12-19T18:06:42.605Z,9.20
2022-12-19T18:09:19.000Z,9.27
2022-12-19T18:11:46.609Z,8.93
2022-12-19T18:14:16.346Z,8.97
2022-12-19T18:16:45.056Z,8.90
2022-12-19T18:19:17.194Z,8.80
2022-12-19T18:21:46.390Z,9.50
2022-12-19T18:24:14.699Z,10.07
2022-12-19T18:26:42.182Z,10.00
2022-12-19T18:29:09.695Z,8.97
2022-12-19T18:31:37.407Z,8.33
2022-12-19T18:34:08.089Z,9.17
2022-12-19T18:36:40.981Z,9.17
2022-12-19T18:39:19.888Z,8.83
2022-12-19T18:41:47.805Z,7.80
2022-12-19T18:44:17.199Z,8.77
2022-12-19T18:46:45.135Z,8.50
2022-12-19T18:49:13.933Z,9.03
2022-12-19T18:51:41.731Z,8.57
2022-12-19T18:54:15.211Z,8.73
2022-12-19T18:56:42.675Z,8.87
2022-12-19T18:59:10.989Z,9.33
2022-12-19T19:01:41.778Z,8.90
2022-12-19T19:04:12.020Z,9.80
2022-12-19T19:06:43.478Z,9.30
2022-12-19T19:09:18.905Z,9.97
2022-12-19T19:12:12.952Z,9.30
2022-12-19T19:14:41.596Z,9.30
2022-12-19T19:17:16.788Z,9.00
2022-12-19T19:19:44.359Z,9.43
2022-12-19T19:22:11.842Z,9.10
2022-12-19T19:24:40.877Z,9.53
2022-12-19T19:27:08.359Z,8.97
2022-12-19T19:29:35.856Z,9.33
2022-12-19T19:32:03.371Z,8.27
2022-12-19T19:34:33.091Z,8.97
2022-12-19T19:37:02.224Z,8.57
2022-12-19T19:39:32.818Z,8.43
2022-12-19T19:42:01.992Z,7.90
2022-12-19T19:44:29.805Z,8.40
2022-12-19T19:46:57.768Z,8.50
2022-12-19T19:49:25.437Z,8.63
2022-12-19T19:51:57.005Z,7.97
2022-12-19T19:54:29.744Z,7.90
2022-12-19T19:56:57.264Z,8.57
2022-12-19T19:59:26.087Z,8.70
2022-12-19T20:01:54.338Z,7.67
2022-12-19T20:04:22.086Z,7.70
2022-12-19T20:06:49.603Z,8.67
2022-12-19T20:09:17.272Z,8.57
2022-12-19T20:11:44.973Z,7.83
2022-12-19T20:14:14.829Z,8.70
2022-12-19T20:16:44.305Z,7.97
2022-12-19T20:19:11.991Z,7.83
2022-12-19T20:21:39.480Z,8.53
2022-12-19T20:24:08.011Z,8.83
2022-12-19T20:26:35.578Z,9.03
2022-12-19T20:29:03.431Z,8.17
2022-12-19T20:31:32.284Z,8.70
2022-12-19T20:34:01.158Z,8.40
2022-12-19T20:36:28.986Z,8.77
2022-12-19T20:38:56.554Z,8.03
2022-12-19T20:41:24.110Z,8.13
2022-12-19T20:43:53.005Z,7.80
2022-12-19T20:46:22.285Z,8.60
2022-12-19T20:48:50.437Z,8.57
2022-12-19T20:51:21.419Z,8.00
2022-12-19T20:53:49.076Z,8.20
2022-12-19T20:56:18.945Z,7.20
2022-12-19T20:58:47.062Z,7.43
2022-12-19T21:01:16.631Z,8.47
2022-12-19T21:03:47.028Z,7.20
2022-12-19T21:06:20.290Z,8.47
2022-12-19T21:08:47.931Z,7.83
2022-12-19T21:11:16.414Z,7.20
2022-12-19T21:13:44.236Z,7.63
2022-12-19T21:16:14.051Z,7.83
2022-12-19T21:18:42.440Z,7.27
2022-12-19T21:21:12.696Z,6.93
2022-12-19T21:23:42.152Z,6.60
2022-12-19T21:26:09.868Z,6.63
2022-12-19T21:28:37.710Z,7.40
2022-12-19T21:31:08.291Z,7.30
2022-12-19T21:33:35.985Z,7.23
2022-12-19T21:36:07.954Z,7.07
2022-12-19T21:38:35.602Z,6.70
2022-12-19T21:41:05.785Z,6.97
2022-12-19T21:43:33.391Z,6.90
2022-12-19T21:46:08.726Z,7.20
2022-12-19T21:48:38.278Z,6.27
2022-12-19T21:51:06.146Z,6.17
2022-12-19T21:53:34.311Z,6.10
2022-12-19T21:56:07.899Z,6.67
2022-12-19T21:58:35.667Z,7.00
2022-12-19T22:01:08.508Z,6.30
2022-12-19T22:03:36.447Z,5.80
2022-12-19T22:06:04.678Z,6.40
2022-12-19T22:08:32.339Z,6.23
2022-12-19T22:10:59.878Z,6.93
2022-12-19T22:13:29.022Z,6.33
2022-12-19T22:16:01.346Z,5.80
2022-12-19T22:18:29.363Z,6.57
2022-12-19T22:20:57.907Z,6.30
2022-12-19T22:23:25.744Z,6.33
2022-12-19T22:26:01.893Z,6.27
2022-12-19T22:28:32.333Z,6.53
2022-12-19T22:31:00.131Z,5.77
2022-12-19T22:33:27.859Z,5.47
2022-12-19T22:35:55.293Z,6.37
2022-12-19T22:38:22.867Z,5.70
2022-12-19T22:40:50.377Z,6.10
2022-12-19T22:43:17.853Z,6.50
2022-12-19T22:45:46.703Z,5.93
2022-12-19T22:48:14.204Z,5.27
2022-12-19T22:50:46.892Z,5.70
2022-12-19T22:53:15.042Z,5.40
2022-12-19T22:55:42.996Z,5.43
2022-12-19T22:58:10.664Z,5.70
2022-12-19T23:00:38.160Z,5.50
2022-12-19T23:03:07.605Z,5.70
2022-12-19T23:05:36.581Z,5.27
2022-12-19T23:08:04.228Z,5.27
2022-12-19T23:10:31.751Z,5.60
2022-12-19T23:12:59.231Z,6.37
2022-12-19T23:15:26.754Z,5.77
2022-12-19T23:17:54.272Z,5.83
2022-12-19T23:20:23.140Z,6.10
2022-12-19T23:22:50.651Z,6.47
2022-12-19T23:25:18.964Z,5.70
2022-12-19T23:27:47.135Z,5.67
2022-12-19T23:30:14.702Z,5.90
2022-12-19T23:32:48.735Z,5.80
2022-12-19T23:35:18.206Z,6.30
2022-12-19T23:37:47.033Z,5.57
2022-12-19T23:40:14.636Z,5.80
2022-12-19T23:42:42.282Z,5.30
2022-12-19T23:45:10.545Z,5.90
2022-12-19T23:47:38.142Z,5.70
2022-12-19T23:50:06.722Z,6.60
2022-12-19T23:52:34.240Z,5.03
2022-12-19T23:55:03.067Z,5.53
2022-12-19T23:57:30.667Z,5.33
2022-12-19T23:59:58.183Z,5.23
